sensor_id;sensor_type;location;lat;lon;timestamp;P1;durP1;ratioP1;P2;durP2;ratioP2
58338;SDS011;48278;52.704;6.536;2022-08-27T00:02:06;16.60;;;4.55;;
58338;SDS011;48278;52.704;6.536;2022-08-27T00:04:32;17.98;;;4.38;;
58338;SDS011;48278;52.704;6.536;2022-08-27T00:06:59;20.30;;;4.70;;
58338;SDS011;48278;52.704;6.536;2022-08-27T00:09:25;12.18;;;4.03;;
58338;SDS011;48278;52.704;6.536;2022-08-27T00:11:51;17.25;;;4.63;;
58338;SDS011;48278;52.704;6.536;2022-08-27T00:14:17;15.52;;;4.63;;
58338;SDS011;48278;52.704;6.536;2022-08-27T00:16:43;15.30;;;3.92;;
58338;SDS011;48278;52.704;6.536;2022-08-27T00:19:09;14.73;;;4.20;;
58338;SDS011;48278;52.704;6.536;2022-08-27T00:21:35;15.02;;;4.40;;
58338;SDS011;48278;52.704;6.536;2022-08-27T00:24:01;19.00;;;4.35;;
58338;SDS011;48278;52.704;6.536;2022-08-27T00:26:27;21.20;;;4.10;;
58338;SDS011;48278;52.704;6.536;2022-08-27T00:28:53;16.83;;;4.35;;
58338;SDS011;48278;52.704;6.536;2022-08-27T00:31:18;12.52;;;4.10;;
58338;SDS011;48278;52.704;6.536;2022-08-27T00:33:44;16.20;;;4.20;;
58338;SDS011;48278;52.704;6.536;2022-08-27T00:36:10;13.65;;;3.92;;
58338;SDS011;48278;52.704;6.536;2022-08-27T00:38:37;15.23;;;4.40;;
58338;SDS011;48278;52.704;6.536;2022-08-27T00:41:05;11.30;;;4.47;;
58338;SDS011;48278;52.704;6.536;2022-08-27T00:43:47;12.90;;;4.30;;
58338;SDS011;48278;52.704;6.536;2022-08-27T00:46:15;12.15;;;3.85;;
58338;SDS011;48278;52.704;6.536;2022-08-27T00:48:45;14.93;;;3.90;;
58338;SDS011;48278;52.704;6.536;2022-08-27T00:51:12;11.73;;;3.60;;
58338;SDS011;48278;52.704;6.536;2022-08-27T00:53:38;16.27;;;4.38;;
58338;SDS011;48278;52.704;6.536;2022-08-27T00:56:09;11.02;;;3.88;;
58338;SDS011;48278;52.704;6.536;2022-08-27T00:58:38;12.65;;;3.42;;
58338;SDS011;48278;52.704;6.536;2022-08-27T01:01:07;14.85;;;3.83;;
58338;SDS011;48278;52.704;6.536;2022-08-27T01:03:34;12.50;;;4.03;;
58338;SDS011;48278;52.704;6.536;2022-08-27T01:06:00;20.37;;;4.63;;
58338;SDS011;48278;52.704;6.536;2022-08-27T01:08:30;18.00;;;4.32;;
58338;SDS011;48278;52.704;6.536;2022-08-27T01:11:00;16.13;;;4.68;;
58338;SDS011;48278;52.704;6.536;2022-08-27T01:13:27;18.23;;;4.20;;
58338;SDS011;48278;52.704;6.536;2022-08-27T01:15:55;14.30;;;4.43;;
58338;SDS011;48278;52.704;6.536;2022-08-27T01:18:23;13.40;;;4.38;;
58338;SDS011;48278;52.704;6.536;2022-08-27T01:20:59;14.68;;;4.53;;
58338;SDS011;48278;52.704;6.536;2022-08-27T01:26:27;19.20;;;4.70;;
58338;SDS011;48278;52.704;6.536;2022-08-27T01:28:54;15.38;;;4.63;;
58338;SDS011;48278;52.704;6.536;2022-08-27T01:31:20;18.88;;;4.88;;
58338;SDS011;48278;52.704;6.536;2022-08-27T01:34:18;13.77;;;4.30;;
58338;SDS011;48278;52.704;6.536;2022-08-27T01:36:37;15.75;;;5.20;;
58338;SDS011;48278;52.704;6.536;2022-08-27T01:39:03;20.27;;;5.38;;
58338;SDS011;48278;52.704;6.536;2022-08-27T01:41:28;16.98;;;5.22;;
58338;SDS011;48278;52.704;6.536;2022-08-27T01:43:54;13.43;;;5.57;;
58338;SDS011;48278;52.704;6.536;2022-08-27T01:46:21;12.68;;;4.88;;
58338;SDS011;48278;52.704;6.536;2022-08-27T01:48:48;19.45;;;6.18;;
58338;SDS011;48278;52.704;6.536;2022-08-27T01:51:14;18.80;;;5.65;;
58338;SDS011;48278;52.704;6.536;2022-08-27T01:53:40;15.07;;;6.20;;
58338;SDS011;48278;52.704;6.536;2022-08-27T01:56:05;18.30;;;6.15;;
58338;SDS011;48278;52.704;6.536;2022-08-27T01:58:31;17.58;;;5.35;;
58338;SDS011;48278;52.704;6.536;2022-08-27T02:00:59;12.57;;;5.60;;
58338;SDS011;48278;52.704;6.536;2022-08-27T02:03:29;17.00;;;6.05;;
58338;SDS011;48278;52.704;6.536;2022-08-27T02:05:55;17.38;;;5.47;;
58338;SDS011;48278;52.704;6.536;2022-08-27T02:08:21;17.03;;;5.90;;
58338;SDS011;48278;52.704;6.536;2022-08-27T02:10:48;16.25;;;5.53;;
58338;SDS011;48278;52.704;6.536;2022-08-27T02:13:14;15.40;;;5.72;;
58338;SDS011;48278;52.704;6.536;2022-08-27T02:15:41;17.52;;;5.38;;
58338;SDS011;48278;52.704;6.536;2022-08-27T02:18:08;18.42;;;5.20;;
58338;SDS011;48278;52.704;6.536;2022-08-27T02:20:35;16.27;;;5.07;;
58338;SDS011;48278;52.704;6.536;2022-08-27T02:23:01;19.92;;;5.45;;
58338;SDS011;48278;52.704;6.536;2022-08-27T02:25:28;15.50;;;5.35;;
58338;SDS011;48278;52.704;6.536;2022-08-27T02:27:55;15.90;;;6.10;;
58338;SDS011;48278;52.704;6.536;2022-08-27T02:30:24;13.23;;;5.43;;
58338;SDS011;48278;52.704;6.536;2022-08-27T02:32:50;15.98;;;5.60;;
58338;SDS011;48278;52.704;6.536;2022-08-27T02:35:17;18.40;;;5.35;;
58338;SDS011;48278;52.704;6.536;2022-08-27T02:37:45;23.40;;;6.45;;
58338;SDS011;48278;52.704;6.536;2022-08-27T02:40:12;16.98;;;7.05;;
58338;SDS011;48278;52.704;6.536;2022-08-27T02:42:43;16.42;;;5.95;;
58338;SDS011;48278;52.704;6.536;2022-08-27T02:45:09;16.80;;;7.03;;
58338;SDS011;48278;52.704;6.536;2022-08-27T02:50:02;15.43;;;6.20;;
58338;SDS011;48278;52.704;6.536;2022-08-27T02:52:29;19.05;;;6.00;;
58338;SDS011;48278;52.704;6.536;2022-08-27T02:54:55;17.08;;;5.72;;
58338;SDS011;48278;52.704;6.536;2022-08-27T02:57:21;16.25;;;5.30;;
58338;SDS011;48278;52.704;6.536;2022-08-27T02:59:48;17.20;;;5.95;;
58338;SDS011;48278;52.704;6.536;2022-08-27T03:02:15;20.85;;;6.10;;
58338;SDS011;48278;52.704;6.536;2022-08-27T03:04:41;17.13;;;6.63;;
58338;SDS011;48278;52.704;6.536;2022-08-27T03:07:07;18.85;;;6.53;;
58338;SDS011;48278;52.704;6.536;2022-08-27T03:09:33;15.40;;;5.95;;
58338;SDS011;48278;52.704;6.536;2022-08-27T03:11:59;17.17;;;6.03;;
58338;SDS011;48278;52.704;6.536;2022-08-27T03:14:26;18.45;;;6.38;;
58338;SDS011;48278;52.704;6.536;2022-08-27T03:16:52;19.08;;;5.70;;
58338;SDS011;48278;52.704;6.536;2022-08-27T03:19:19;14.02;;;5.40;;
58338;SDS011;48278;52.704;6.536;2022-08-27T03:21:45;17.00;;;6.57;;
58338;SDS011;48278;52.704;6.536;2022-08-27T03:26:38;15.40;;;4.97;;
58338;SDS011;48278;52.704;6.536;2022-08-27T03:29:04;16.15;;;4.85;;
58338;SDS011;48278;52.704;6.536;2022-08-27T03:31:31;15.75;;;5.50;;
58338;SDS011;48278;52.704;6.536;2022-08-27T03:33:59;18.38;;;6.05;;
58338;SDS011;48278;52.704;6.536;2022-08-27T03:36:27;17.10;;;5.18;;
58338;SDS011;48278;52.704;6.536;2022-08-27T03:38:54;18.30;;;5.25;;
58338;SDS011;48278;52.704;6.536;2022-08-27T03:43:47;17.38;;;4.95;;
58338;SDS011;48278;52.704;6.536;2022-08-27T03:46:14;11.13;;;4.80;;
58338;SDS011;48278;52.704;6.536;2022-08-27T03:48:40;12.50;;;5.47;;
58338;SDS011;48278;52.704;6.536;2022-08-27T03:51:10;15.63;;;5.18;;
58338;SDS011;48278;52.704;6.536;2022-08-27T03:53:39;15.57;;;5.10;;
58338;SDS011;48278;52.704;6.536;2022-08-27T03:56:06;16.95;;;5.05;;
58338;SDS011;48278;52.704;6.536;2022-08-27T03:58:33;12.70;;;5.47;;
58338;SDS011;48278;52.704;6.536;2022-08-27T04:01:00;15.07;;;5.60;;
58338;SDS011;48278;52.704;6.536;2022-08-27T04:03:26;17.42;;;5.85;;
58338;SDS011;48278;52.704;6.536;2022-08-27T04:05:53;18.25;;;6.13;;
58338;SDS011;48278;52.704;6.536;2022-08-27T04:08:20;14.55;;;5.72;;
58338;SDS011;48278;52.704;6.536;2022-08-27T04:13:13;15.55;;;5.35;;
58338;SDS011;48278;52.704;6.536;2022-08-27T04:15:42;14.85;;;5.07;;
58338;SDS011;48278;52.704;6.536;2022-08-27T04:18:09;14.70;;;5.30;;
58338;SDS011;48278;52.704;6.536;2022-08-27T04:20:36;16.40;;;5.70;;
58338;SDS011;48278;52.704;6.536;2022-08-27T04:23:03;15.75;;;6.05;;
58338;SDS011;48278;52.704;6.536;2022-08-27T04:25:29;17.30;;;5.85;;
58338;SDS011;48278;52.704;6.536;2022-08-27T04:27:55;22.65;;;5.93;;
58338;SDS011;48278;52.704;6.536;2022-08-27T04:30:21;17.40;;;5.75;;
58338;SDS011;48278;52.704;6.536;2022-08-27T04:32:47;16.60;;;5.50;;
58338;SDS011;48278;52.704;6.536;2022-08-27T04:35:13;16.45;;;5.35;;
58338;SDS011;48278;52.704;6.536;2022-08-27T04:37:39;14.15;;;5.57;;
58338;SDS011;48278;52.704;6.536;2022-08-27T04:40:05;17.55;;;5.70;;
58338;SDS011;48278;52.704;6.536;2022-08-27T04:42:31;16.23;;;5.90;;
58338;SDS011;48278;52.704;6.536;2022-08-27T04:44:57;12.02;;;5.60;;
58338;SDS011;48278;52.704;6.536;2022-08-27T04:47:22;18.67;;;6.38;;
58338;SDS011;48278;52.704;6.536;2022-08-27T04:49:48;19.30;;;5.75;;
58338;SDS011;48278;52.704;6.536;2022-08-27T04:52:14;16.05;;;5.50;;
58338;SDS011;48278;52.704;6.536;2022-08-27T04:54:40;15.20;;;4.88;;
58338;SDS011;48278;52.704;6.536;2022-08-27T04:57:06;15.00;;;5.55;;
58338;SDS011;48278;52.704;6.536;2022-08-27T04:59:32;16.83;;;5.50;;
58338;SDS011;48278;52.704;6.536;2022-08-27T05:02:00;15.25;;;4.80;;
58338;SDS011;48278;52.704;6.536;2022-08-27T05:04:26;14.10;;;5.18;;
58338;SDS011;48278;52.704;6.536;2022-08-27T05:06:54;16.35;;;5.38;;
58338;SDS011;48278;52.704;6.536;2022-08-27T05:09:20;12.68;;;5.20;;
58338;SDS011;48278;52.704;6.536;2022-08-27T05:11:46;17.15;;;4.82;;
58338;SDS011;48278;52.704;6.536;2022-08-27T05:14:13;15.02;;;4.47;;
58338;SDS011;48278;52.704;6.536;2022-08-27T05:16:40;19.02;;;5.20;;
58338;SDS011;48278;52.704;6.536;2022-08-27T05:19:07;17.75;;;6.03;;
58338;SDS011;48278;52.704;6.536;2022-08-27T05:21:39;12.48;;;5.70;;
58338;SDS011;48278;52.704;6.536;2022-08-27T05:24:10;18.50;;;6.00;;
58338;SDS011;48278;52.704;6.536;2022-08-27T05:26:36;17.75;;;6.05;;
58338;SDS011;48278;52.704;6.536;2022-08-27T05:29:03;15.77;;;5.20;;
58338;SDS011;48278;52.704;6.536;2022-08-27T05:31:30;16.20;;;5.43;;
58338;SDS011;48278;52.704;6.536;2022-08-27T05:33:56;17.30;;;6.40;;
58338;SDS011;48278;52.704;6.536;2022-08-27T05:36:23;15.63;;;5.85;;
58338;SDS011;48278;52.704;6.536;2022-08-27T05:38:51;18.80;;;5.70;;
58338;SDS011;48278;52.704;6.536;2022-08-27T05:41:26;16.42;;;5.28;;
58338;SDS011;48278;52.704;6.536;2022-08-27T05:43:55;15.35;;;6.30;;
58338;SDS011;48278;52.704;6.536;2022-08-27T05:46:23;16.17;;;5.85;;
58338;SDS011;48278;52.704;6.536;2022-08-27T05:48:51;16.48;;;5.40;;
58338;SDS011;48278;52.704;6.536;2022-08-27T05:56:14;19.53;;;5.93;;
58338;SDS011;48278;52.704;6.536;2022-08-27T05:58:45;17.52;;;5.57;;
58338;SDS011;48278;52.704;6.536;2022-08-27T06:01:30;12.05;;;5.57;;
58338;SDS011;48278;52.704;6.536;2022-08-27T06:03:59;15.55;;;5.85;;
58338;SDS011;48278;52.704;6.536;2022-08-27T06:06:25;15.02;;;5.55;;
58338;SDS011;48278;52.704;6.536;2022-08-27T06:08:51;14.40;;;5.20;;
58338;SDS011;48278;52.704;6.536;2022-08-27T06:11:18;15.15;;;5.60;;
58338;SDS011;48278;52.704;6.536;2022-08-27T06:13:44;12.52;;;5.43;;
58338;SDS011;48278;52.704;6.536;2022-08-27T06:16:10;17.42;;;5.35;;
58338;SDS011;48278;52.704;6.536;2022-08-27T06:18:42;18.25;;;5.35;;
58338;SDS011;48278;52.704;6.536;2022-08-27T06:21:10;17.50;;;5.30;;
58338;SDS011;48278;52.704;6.536;2022-08-27T06:23:36;14.30;;;5.20;;
58338;SDS011;48278;52.704;6.536;2022-08-27T06:26:06;17.35;;;5.43;;
58338;SDS011;48278;52.704;6.536;2022-08-27T06:28:34;14.57;;;5.45;;
58338;SDS011;48278;52.704;6.536;2022-08-27T06:31:01;17.75;;;5.13;;
58338;SDS011;48278;52.704;6.536;2022-08-27T06:33:31;14.90;;;4.28;;
58338;SDS011;48278;52.704;6.536;2022-08-27T06:36:02;16.05;;;5.07;;
58338;SDS011;48278;52.704;6.536;2022-08-27T06:38:30;18.52;;;4.97;;
58338;SDS011;48278;52.704;6.536;2022-08-27T06:40:56;18.98;;;4.90;;
58338;SDS011;48278;52.704;6.536;2022-08-27T06:43:22;12.77;;;4.07;;
58338;SDS011;48278;52.704;6.536;2022-08-27T06:45:48;12.73;;;4.17;;
58338;SDS011;48278;52.704;6.536;2022-08-27T06:48:14;10.98;;;3.90;;
58338;SDS011;48278;52.704;6.536;2022-08-27T06:50:42;14.10;;;4.85;;
58338;SDS011;48278;52.704;6.536;2022-08-27T06:53:08;11.43;;;4.00;;
58338;SDS011;48278;52.704;6.536;2022-08-27T06:55:44;15.07;;;4.27;;
58338;SDS011;48278;52.704;6.536;2022-08-27T06:58:12;12.00;;;4.15;;
58338;SDS011;48278;52.704;6.536;2022-08-27T07:00:38;13.18;;;4.18;;
58338;SDS011;48278;52.704;6.536;2022-08-27T07:03:05;13.35;;;3.58;;
58338;SDS011;48278;52.704;6.536;2022-08-27T07:05:31;15.73;;;3.60;;
58338;SDS011;48278;52.704;6.536;2022-08-27T07:07:58;9.43;;;3.63;;
58338;SDS011;48278;52.704;6.536;2022-08-27T07:10:25;14.77;;;3.83;;
58338;SDS011;48278;52.704;6.536;2022-08-27T07:12:51;12.20;;;3.63;;
58338;SDS011;48278;52.704;6.536;2022-08-27T07:15:17;13.25;;;3.53;;
58338;SDS011;48278;52.704;6.536;2022-08-27T07:17:42;11.90;;;3.55;;
58338;SDS011;48278;52.704;6.536;2022-08-27T07:20:09;15.75;;;4.35;;
58338;SDS011;48278;52.704;6.536;2022-08-27T07:22:37;8.90;;;2.70;;
58338;SDS011;48278;52.704;6.536;2022-08-27T07:25:04;13.00;;;3.33;;
58338;SDS011;48278;52.704;6.536;2022-08-27T07:27:31;9.85;;;3.10;;
58338;SDS011;48278;52.704;6.536;2022-08-27T07:29:57;9.18;;;3.13;;
58338;SDS011;48278;52.704;6.536;2022-08-27T07:32:23;11.87;;;3.10;;
58338;SDS011;48278;52.704;6.536;2022-08-27T07:34:49;13.25;;;2.90;;
58338;SDS011;48278;52.704;6.536;2022-08-27T07:37:15;11.97;;;3.00;;
58338;SDS011;48278;52.704;6.536;2022-08-27T07:39:41;11.63;;;2.55;;
58338;SDS011;48278;52.704;6.536;2022-08-27T07:42:07;11.50;;;2.70;;
58338;SDS011;48278;52.704;6.536;2022-08-27T07:44:51;16.63;;;3.28;;
58338;SDS011;48278;52.704;6.536;2022-08-27T07:47:17;14.53;;;3.27;;
58338;SDS011;48278;52.704;6.536;2022-08-27T07:49:43;11.23;;;2.73;;
58338;SDS011;48278;52.704;6.536;2022-08-27T07:52:08;13.03;;;3.40;;
58338;SDS011;48278;52.704;6.536;2022-08-27T07:54:34;15.57;;;3.20;;
58338;SDS011;48278;52.704;6.536;2022-08-27T07:57:00;13.63;;;3.03;;
58338;SDS011;48278;52.704;6.536;2022-08-27T07:59:27;12.10;;;2.97;;
58338;SDS011;48278;52.704;6.536;2022-08-27T08:01:53;21.07;;;3.10;;
58338;SDS011;48278;52.704;6.536;2022-08-27T08:04:20;9.40;;;2.60;;
58338;SDS011;48278;52.704;6.536;2022-08-27T08:06:47;13.50;;;2.60;;
58338;SDS011;48278;52.704;6.536;2022-08-27T08:09:13;13.23;;;2.90;;
58338;SDS011;48278;52.704;6.536;2022-08-27T08:11:39;15.47;;;3.10;;
58338;SDS011;48278;52.704;6.536;2022-08-27T08:14:05;9.25;;;2.45;;
58338;SDS011;48278;52.704;6.536;2022-08-27T08:16:31;12.07;;;1.93;;
58338;SDS011;48278;52.704;6.536;2022-08-27T08:18:56;13.43;;;1.93;;
58338;SDS011;48278;52.704;6.536;2022-08-27T08:21:24;12.50;;;1.70;;
58338;SDS011;48278;52.704;6.536;2022-08-27T08:23:50;9.98;;;1.40;;
58338;SDS011;48278;52.704;6.536;2022-08-27T08:26:16;9.87;;;1.53;;
58338;SDS011;48278;52.704;6.536;2022-08-27T08:28:42;9.50;;;1.60;;
58338;SDS011;48278;52.704;6.536;2022-08-27T08:31:08;18.30;;;1.97;;
58338;SDS011;48278;52.704;6.536;2022-08-27T08:33:34;14.97;;;2.03;;
58338;SDS011;48278;52.704;6.536;2022-08-27T08:36:04;12.63;;;1.77;;
58338;SDS011;48278;52.704;6.536;2022-08-27T08:38:32;10.88;;;1.70;;
58338;SDS011;48278;52.704;6.536;2022-08-27T08:40:58;15.17;;;2.00;;
58338;SDS011;48278;52.704;6.536;2022-08-27T08:43:27;20.50;;;2.80;;
58338;SDS011;48278;52.704;6.536;2022-08-27T08:46:16;13.85;;;2.13;;
58338;SDS011;48278;52.704;6.536;2022-08-27T08:48:50;15.02;;;2.10;;
58338;SDS011;48278;52.704;6.536;2022-08-27T08:51:22;12.77;;;1.95;;
58338;SDS011;48278;52.704;6.536;2022-08-27T08:53:55;11.45;;;1.73;;
58338;SDS011;48278;52.704;6.536;2022-08-27T08:56:27;14.77;;;2.22;;
58338;SDS011;48278;52.704;6.536;2022-08-27T08:59:08;13.00;;;1.80;;
58338;SDS011;48278;52.704;6.536;2022-08-27T09:01:38;12.63;;;1.95;;
58338;SDS011;48278;52.704;6.536;2022-08-27T09:04:06;14.93;;;2.27;;
58338;SDS011;48278;52.704;6.536;2022-08-27T09:06:54;12.93;;;2.00;;
58338;SDS011;48278;52.704;6.536;2022-08-27T09:09:49;15.43;;;2.25;;
58338;SDS011;48278;52.704;6.536;2022-08-27T09:12:27;10.27;;;1.63;;
58338;SDS011;48278;52.704;6.536;2022-08-27T09:15:00;11.73;;;1.75;;
58338;SDS011;48278;52.704;6.536;2022-08-27T09:17:33;10.35;;;1.60;;
58338;SDS011;48278;52.704;6.536;2022-08-27T09:19:59;11.90;;;1.73;;
58338;SDS011;48278;52.704;6.536;2022-08-27T09:22:28;9.73;;;1.48;;
58338;SDS011;48278;52.704;6.536;2022-08-27T09:25:33;10.27;;;1.45;;
58338;SDS011;48278;52.704;6.536;2022-08-27T09:27:57;4.85;;;1.33;;
58338;SDS011;48278;52.704;6.536;2022-08-27T09:30:29;8.50;;;1.20;;
58338;SDS011;48278;52.704;6.536;2022-08-27T09:33:05;13.85;;;1.67;;
58338;SDS011;48278;52.704;6.536;2022-08-27T09:35:40;6.37;;;1.10;;
58338;SDS011;48278;52.704;6.536;2022-08-27T09:38:09;10.77;;;1.30;;
58338;SDS011;48278;52.704;6.536;2022-08-27T09:40:41;17.45;;;2.15;;
58338;SDS011;48278;52.704;6.536;2022-08-27T09:45:47;15.32;;;1.70;;
58338;SDS011;48278;52.704;6.536;2022-08-27T09:48:21;15.73;;;2.50;;
58338;SDS011;48278;52.704;6.536;2022-08-27T09:50:52;13.25;;;2.00;;
58338;SDS011;48278;52.704;6.536;2022-08-27T09:53:32;13.57;;;1.60;;
58338;SDS011;48278;52.704;6.536;2022-08-27T09:56:35;17.73;;;2.08;;
58338;SDS011;48278;52.704;6.536;2022-08-27T09:59:12;13.90;;;1.77;;
58338;SDS011;48278;52.704;6.536;2022-08-27T10:02:31;20.77;;;2.03;;
58338;SDS011;48278;52.704;6.536;2022-08-27T10:04:41;12.20;;;1.60;;
58338;SDS011;48278;52.704;6.536;2022-08-27T10:21:07;15.88;;;1.65;;
58338;SDS011;48278;52.704;6.536;2022-08-27T10:26:17;17.05;;;1.95;;
58338;SDS011;48278;52.704;6.536;2022-08-27T10:32:22;14.00;;;1.20;;
58338;SDS011;48278;52.704;6.536;2022-08-27T10:35:16;19.00;;;1.85;;
58338;SDS011;48278;52.704;6.536;2022-08-27T10:40:16;16.47;;;1.50;;
58338;SDS011;48278;52.704;6.536;2022-08-27T10:50:54;19.30;;;1.60;;
58338;SDS011;48278;52.704;6.536;2022-08-27T10:53:35;15.00;;;1.10;;
58338;SDS011;48278;52.704;6.536;2022-08-27T10:56:10;9.93;;;1.08;;
58338;SDS011;48278;52.704;6.536;2022-08-27T11:11:39;12.20;;;1.75;;
58338;SDS011;48278;52.704;6.536;2022-08-27T11:14:10;18.55;;;2.33;;
58338;SDS011;48278;52.704;6.536;2022-08-27T11:16:44;10.85;;;1.15;;
58338;SDS011;48278;52.704;6.536;2022-08-27T11:25:04;23.90;;;4.82;;
58338;SDS011;48278;52.704;6.536;2022-08-27T11:27:39;13.23;;;3.25;;
58338;SDS011;48278;52.704;6.536;2022-08-27T11:30:07;17.02;;;3.30;;
58338;SDS011;48278;52.704;6.536;2022-08-27T11:35:24;15.30;;;1.60;;
58338;SDS011;48278;52.704;6.536;2022-08-27T11:39:14;14.85;;;1.50;;
58338;SDS011;48278;52.704;6.536;2022-08-27T11:44:03;19.52;;;2.60;;
58338;SDS011;48278;52.704;6.536;2022-08-27T11:46:38;17.47;;;1.87;;
58338;SDS011;48278;52.704;6.536;2022-08-27T11:49:11;13.68;;;1.60;;
58338;SDS011;48278;52.704;6.536;2022-08-27T11:52:03;15.82;;;1.90;;
58338;SDS011;48278;52.704;6.536;2022-08-27T11:54:44;10.20;;;1.58;;
58338;SDS011;48278;52.704;6.536;2022-08-27T11:57:15;14.60;;;1.70;;
58338;SDS011;48278;52.704;6.536;2022-08-27T12:02:42;11.43;;;1.38;;
58338;SDS011;48278;52.704;6.536;2022-08-27T12:07:43;20.60;;;2.47;;
58338;SDS011;48278;52.704;6.536;2022-08-27T12:13:22;19.30;;;2.28;;
58338;SDS011;48278;52.704;6.536;2022-08-27T12:38:16;11.20;;;1.17;;
58338;SDS011;48278;52.704;6.536;2022-08-27T12:48:23;12.18;;;1.48;;
58338;SDS011;48278;52.704;6.536;2022-08-27T12:50:53;10.93;;;1.30;;
58338;SDS011;48278;52.704;6.536;2022-08-27T12:56:28;13.00;;;1.17;;
58338;SDS011;48278;52.704;6.536;2022-08-27T13:04:34;16.55;;;1.95;;
58338;SDS011;48278;52.704;6.536;2022-08-27T13:07:03;12.77;;;1.27;;
58338;SDS011;48278;52.704;6.536;2022-08-27T13:09:30;13.50;;;1.20;;
58338;SDS011;48278;52.704;6.536;2022-08-27T13:11:59;12.35;;;1.20;;
58338;SDS011;48278;52.704;6.536;2022-08-27T13:14:27;13.23;;;1.20;;
58338;SDS011;48278;52.704;6.536;2022-08-27T13:17:04;17.45;;;1.38;;
58338;SDS011;48278;52.704;6.536;2022-08-27T13:19:35;16.60;;;1.45;;
58338;SDS011;48278;52.704;6.536;2022-08-27T13:22:22;11.63;;;1.30;;
58338;SDS011;48278;52.704;6.536;2022-08-27T13:24:51;13.57;;;1.35;;
58338;SDS011;48278;52.704;6.536;2022-08-27T13:27:25;13.07;;;1.08;;
58338;SDS011;48278;52.704;6.536;2022-08-27T13:29:52;11.88;;;1.30;;
58338;SDS011;48278;52.704;6.536;2022-08-27T13:32:19;14.27;;;1.48;;
58338;SDS011;48278;52.704;6.536;2022-08-27T13:34:54;12.30;;;1.42;;
58338;SDS011;48278;52.704;6.536;2022-08-27T13:37:44;12.68;;;2.20;;
58338;SDS011;48278;52.704;6.536;2022-08-27T13:40:20;13.88;;;1.40;;
58338;SDS011;48278;52.704;6.536;2022-08-27T13:42:50;17.90;;;1.52;;
58338;SDS011;48278;52.704;6.536;2022-08-27T13:45:17;11.95;;;1.38;;
58338;SDS011;48278;52.704;6.536;2022-08-27T13:47:45;18.10;;;1.73;;
58338;SDS011;48278;52.704;6.536;2022-08-27T13:50:20;9.55;;;1.30;;
58338;SDS011;48278;52.704;6.536;2022-08-27T13:52:51;15.95;;;1.27;;
58338;SDS011;48278;52.704;6.536;2022-08-27T13:55:45;16.10;;;1.45;;
58338;SDS011;48278;52.704;6.536;2022-08-27T13:58:14;14.27;;;1.65;;
58338;SDS011;48278;52.704;6.536;2022-08-27T14:00:54;10.25;;;1.15;;
58338;SDS011;48278;52.704;6.536;2022-08-27T14:03:31;13.45;;;1.23;;
58338;SDS011;48278;52.704;6.536;2022-08-27T14:06:00;11.65;;;1.30;;
58338;SDS011;48278;52.704;6.536;2022-08-27T14:08:31;13.85;;;1.40;;
58338;SDS011;48278;52.704;6.536;2022-08-27T14:11:01;11.18;;;1.13;;
58338;SDS011;48278;52.704;6.536;2022-08-27T14:13:39;13.98;;;1.75;;
58338;SDS011;48278;52.704;6.536;2022-08-27T14:16:25;9.27;;;1.10;;
58338;SDS011;48278;52.704;6.536;2022-08-27T14:19:05;14.45;;;1.40;;
58338;SDS011;48278;52.704;6.536;2022-08-27T14:21:34;8.73;;;1.10;;
58338;SDS011;48278;52.704;6.536;2022-08-27T14:24:02;14.13;;;1.45;;
58338;SDS011;48278;52.704;6.536;2022-08-27T14:28:54;8.65;;;1.00;;
58338;SDS011;48278;52.704;6.536;2022-08-27T14:31:21;8.18;;;1.05;;
58338;SDS011;48278;52.704;6.536;2022-08-27T14:33:47;12.82;;;0.90;;
58338;SDS011;48278;52.704;6.536;2022-08-27T14:36:13;11.63;;;1.70;;
58338;SDS011;48278;52.704;6.536;2022-08-27T14:41:07;18.90;;;2.90;;
58338;SDS011;48278;52.704;6.536;2022-08-27T14:43:34;10.77;;;1.27;;
58338;SDS011;48278;52.704;6.536;2022-08-27T14:46:00;17.58;;;1.52;;
58338;SDS011;48278;52.704;6.536;2022-08-27T14:50:55;10.48;;;1.45;;
58338;SDS011;48278;52.704;6.536;2022-08-27T14:53:22;9.80;;;1.20;;
58338;SDS011;48278;52.704;6.536;2022-08-27T14:55:48;10.10;;;1.35;;
58338;SDS011;48278;52.704;6.536;2022-08-27T14:58:15;15.70;;;1.45;;
58338;SDS011;48278;52.704;6.536;2022-08-27T15:00:41;17.80;;;2.10;;
58338;SDS011;48278;52.704;6.536;2022-08-27T15:03:08;11.52;;;1.92;;
58338;SDS011;48278;52.704;6.536;2022-08-27T15:05:35;12.73;;;1.10;;
58338;SDS011;48278;52.704;6.536;2022-08-27T15:08:01;10.43;;;1.10;;
58338;SDS011;48278;52.704;6.536;2022-08-27T15:10:28;11.23;;;1.10;;
58338;SDS011;48278;52.704;6.536;2022-08-27T15:12:55;10.57;;;1.27;;
58338;SDS011;48278;52.704;6.536;2022-08-27T15:17:47;12.93;;;2.92;;
58338;SDS011;48278;52.704;6.536;2022-08-27T15:20:13;17.07;;;1.80;;
58338;SDS011;48278;52.704;6.536;2022-08-27T15:22:41;13.00;;;1.13;;
58338;SDS011;48278;52.704;6.536;2022-08-27T15:25:10;18.15;;;6.28;;
58338;SDS011;48278;52.704;6.536;2022-08-27T15:27:37;17.73;;;2.00;;
58338;SDS011;48278;52.704;6.536;2022-08-27T15:30:04;18.52;;;2.75;;
58338;SDS011;48278;52.704;6.536;2022-08-27T15:32:34;15.48;;;2.40;;
58338;SDS011;48278;52.704;6.536;2022-08-27T15:35:03;26.88;;;5.63;;
58338;SDS011;48278;52.704;6.536;2022-08-27T15:37:32;30.42;;;6.95;;
58338;SDS011;48278;52.704;6.536;2022-08-27T15:39:58;30.05;;;9.02;;
58338;SDS011;48278;52.704;6.536;2022-08-27T15:42:25;23.13;;;5.68;;
58338;SDS011;48278;52.704;6.536;2022-08-27T15:44:52;15.10;;;1.88;;
58338;SDS011;48278;52.704;6.536;2022-08-27T15:47:21;17.55;;;3.13;;
58338;SDS011;48278;52.704;6.536;2022-08-27T15:49:47;19.77;;;3.40;;
58338;SDS011;48278;52.704;6.536;2022-08-27T15:52:13;20.87;;;2.90;;
58338;SDS011;48278;52.704;6.536;2022-08-27T15:54:42;8.88;;;1.33;;
58338;SDS011;48278;52.704;6.536;2022-08-27T15:57:08;13.18;;;1.30;;
58338;SDS011;48278;52.704;6.536;2022-08-27T15:59:35;11.80;;;1.85;;
58338;SDS011;48278;52.704;6.536;2022-08-27T16:02:01;8.93;;;1.98;;
58338;SDS011;48278;52.704;6.536;2022-08-27T16:04:28;13.20;;;1.65;;
58338;SDS011;48278;52.704;6.536;2022-08-27T16:06:54;14.93;;;2.33;;
58338;SDS011;48278;52.704;6.536;2022-08-27T16:09:20;16.93;;;3.07;;
58338;SDS011;48278;52.704;6.536;2022-08-27T16:11:45;26.90;;;3.97;;
58338;SDS011;48278;52.704;6.536;2022-08-27T16:14:12;14.05;;;2.45;;
58338;SDS011;48278;52.704;6.536;2022-08-27T16:16:40;12.88;;;1.70;;
58338;SDS011;48278;52.704;6.536;2022-08-27T16:19:09;18.60;;;2.55;;
58338;SDS011;48278;52.704;6.536;2022-08-27T16:21:35;18.33;;;2.30;;
58338;SDS011;48278;52.704;6.536;2022-08-27T16:24:02;16.65;;;4.07;;
58338;SDS011;48278;52.704;6.536;2022-08-27T16:26:30;20.08;;;1.77;;
58338;SDS011;48278;52.704;6.536;2022-08-27T16:28:56;19.13;;;2.15;;
58338;SDS011;48278;52.704;6.536;2022-08-27T16:31:22;16.00;;;2.00;;
58338;SDS011;48278;52.704;6.536;2022-08-27T16:33:48;13.10;;;1.97;;
58338;SDS011;48278;52.704;6.536;2022-08-27T16:36:14;16.55;;;2.17;;
58338;SDS011;48278;52.704;6.536;2022-08-27T16:38:39;17.70;;;1.87;;
58338;SDS011;48278;52.704;6.536;2022-08-27T16:41:05;7.27;;;1.70;;
58338;SDS011;48278;52.704;6.536;2022-08-27T16:43:32;8.85;;;1.95;;
58338;SDS011;48278;52.704;6.536;2022-08-27T16:45:58;14.38;;;2.80;;
58338;SDS011;48278;52.704;6.536;2022-08-27T16:48:25;16.77;;;1.75;;
58338;SDS011;48278;52.704;6.536;2022-08-27T16:51:15;12.50;;;1.88;;
58338;SDS011;48278;52.704;6.536;2022-08-27T16:53:44;13.48;;;2.03;;
58338;SDS011;48278;52.704;6.536;2022-08-27T16:56:13;15.18;;;2.20;;
58338;SDS011;48278;52.704;6.536;2022-08-27T16:58:42;15.10;;;3.03;;
58338;SDS011;48278;52.704;6.536;2022-08-27T17:01:09;13.70;;;2.13;;